Аэропорт
Пудун (ZSPD)

 ZSPD / PVG

China
CN-31
Шанхай-Пудун
 31.14340, 121.80500  / 13 ft

 ZSPD 201800Z 12005MPS 7000 NSC 08/07 Q1031 NOSIG
 TAF ZSPD 200905Z 2012/2112 12004MPS 5000 BR SCT020 TX16/2106Z TN06/2021Z BECMG 2110/2111 27004MPS

2020 © VATRUS division (Privacy Policy)